createdAt,value
2024-03-23T00:00:28.730Z,100.00
2024-03-23T00:03:16.916Z,100.00
2024-03-23T00:05:45.324Z,100.00
2024-03-23T00:08:13.633Z,100.00
2024-03-23T00:10:42.337Z,99.99
2024-03-23T00:13:10.633Z,99.97
2024-03-23T00:15:38.850Z,100.00
2024-03-23T00:18:07.021Z,100.00
2024-03-23T00:20:35.606Z,100.00
2024-03-23T00:23:03.849Z,100.00
2024-03-23T00:25:32.156Z,99.92
2024-03-23T00:28:00.585Z,99.29
2024-03-23T00:30:28.846Z,99.25
2024-03-23T00:32:57.176Z,98.91
2024-03-23T00:35:25.444Z,98.62
2024-03-23T00:37:53.683Z,98.43
2024-03-23T00:40:22.130Z,97.37
2024-03-23T00:42:50.295Z,97.08
2024-03-23T00:45:18.590Z,97.47
2024-03-23T00:47:46.889Z,98.03
2024-03-23T00:50:15.632Z,98.31
2024-03-23T00:52:43.861Z,98.16
2024-03-23T00:55:12.311Z,98.28
2024-03-23T00:57:40.517Z,98.24
2024-03-23T01:00:11.508Z,98.45
2024-03-23T01:02:39.728Z,98.61
2024-03-23T01:05:08.199Z,98.82
2024-03-23T01:07:36.461Z,99.03
2024-03-23T01:10:05.529Z,99.19
2024-03-23T01:12:33.823Z,99.05
2024-03-23T01:15:02.156Z,99.26
2024-03-23T01:17:30.462Z,99.67
2024-03-23T01:19:58.832Z,99.81
2024-03-23T01:22:27.125Z,100.00
2024-03-23T01:24:55.386Z,100.00
2024-03-23T01:27:24.337Z,100.00
2024-03-23T01:29:53.572Z,100.00
2024-03-23T01:32:21.833Z,100.00
2024-03-23T01:34:50.509Z,100.00
2024-03-23T01:37:18.853Z,100.00
2024-03-23T01:39:47.083Z,100.00
2024-03-23T01:42:15.353Z,100.00
2024-03-23T01:44:43.635Z,100.00
2024-03-23T01:47:12.012Z,100.00
2024-03-23T01:49:40.522Z,100.00
2024-03-23T01:52:09.419Z,100.00
2024-03-23T01:54:39.223Z,100.00
2024-03-23T01:57:07.825Z,100.00
2024-03-23T01:59:36.849Z,100.00
2024-03-23T02:02:05.447Z,100.00
2024-03-23T02:04:33.830Z,100.00
2024-03-23T02:07:02.231Z,100.00
2024-03-23T02:09:31.339Z,100.00
2024-03-23T02:11:59.870Z,100.00
2024-03-23T02:14:28.180Z,100.00
2024-03-23T02:16:56.644Z,100.00
2024-03-23T02:19:25.386Z,100.00
2024-03-23T02:21:53.748Z,100.00
2024-03-23T02:24:22.116Z,100.00
2024-03-23T02:26:50.598Z,100.00
2024-03-23T02:29:20.651Z,100.00
2024-03-23T02:31:49.028Z,100.00
2024-03-23T02:34:17.334Z,100.00
2024-03-23T02:36:45.619Z,100.00
2024-03-23T02:39:13.993Z,100.00
2024-03-23T02:41:42.306Z,100.00
2024-03-23T02:44:12.924Z,100.00
2024-03-23T02:46:41.496Z,100.00
2024-03-23T02:49:09.719Z,100.00
2024-03-23T02:51:37.884Z,100.00
2024-03-23T02:54:06.388Z,100.00
2024-03-23T02:56:34.695Z,100.00
2024-03-23T02:59:02.872Z,100.00
2024-03-23T03:01:31.366Z,100.00
2024-03-23T03:03:59.923Z,100.00
2024-03-23T03:06:28.995Z,100.00
2024-03-23T03:08:57.382Z,100.00
2024-03-23T03:11:25.725Z,100.00
2024-03-23T03:13:57.023Z,100.00
2024-03-23T03:16:25.480Z,100.00
2024-03-23T03:18:53.964Z,100.00
2024-03-23T03:21:23.102Z,100.00
2024-03-23T03:23:51.541Z,100.00
2024-03-23T03:26:20.306Z,100.00
2024-03-23T03:28:50.004Z,100.00
2024-03-23T03:31:21.961Z,100.00
2024-03-23T03:33:52.620Z,100.00
2024-03-23T03:36:21.283Z,100.00
2024-03-23T03:38:49.688Z,100.00
2024-03-23T03:41:19.848Z,100.00
2024-03-23T03:43:48.266Z,100.00
2024-03-23T03:46:16.670Z,100.00
2024-03-23T03:48:46.217Z,100.00
2024-03-23T03:51:14.568Z,100.00
2024-03-23T03:53:42.887Z,100.00
2024-03-23T03:56:11.271Z,100.00
2024-03-23T03:58:39.739Z,100.00
2024-03-23T04:01:07.971Z,100.00
2024-03-23T04:03:36.713Z,100.00
2024-03-23T04:06:05.341Z,100.00
2024-03-23T04:08:33.586Z,100.00
2024-03-23T04:11:01.948Z,100.00
2024-03-23T04:13:30.394Z,100.00
2024-03-23T04:15:58.541Z,100.00
2024-03-23T04:18:26.763Z,100.00
2024-03-23T04:20:55.102Z,100.00
2024-03-23T04:23:23.692Z,100.00
2024-03-23T04:25:54.400Z,100.00
2024-03-23T04:28:23.413Z,100.00
2024-03-23T04:30:51.753Z,100.00
2024-03-23T04:33:20.184Z,100.00
2024-03-23T04:35:51.163Z,100.00
2024-03-23T04:38:19.318Z,100.00
2024-03-23T04:40:56.579Z,100.00
2024-03-23T04:43:25.113Z,100.00
2024-03-23T04:45:53.682Z,100.00
2024-03-23T04:48:23.596Z,100.00
2024-03-23T04:50:58.649Z,100.00
2024-03-23T04:53:29.609Z,100.00
2024-03-23T04:56:03.170Z,100.00
2024-03-23T04:58:31.451Z,100.00
2024-03-23T05:00:59.675Z,100.00
2024-03-23T05:03:27.982Z,100.00
2024-03-23T05:05:56.427Z,100.00
2024-03-23T05:08:24.830Z,100.00
2024-03-23T05:10:53.244Z,100.00
2024-03-23T05:13:21.466Z,100.00
2024-03-23T05:15:56.342Z,100.00
2024-03-23T05:18:27.710Z,100.00
2024-03-23T05:21:00.320Z,100.00
2024-03-23T05:23:30.473Z,100.00
2024-03-23T05:25:58.873Z,100.00
2024-03-23T05:28:27.214Z,100.00
2024-03-23T05:30:56.915Z,100.00
2024-03-23T05:33:25.386Z,100.00
2024-03-23T05:36:01.760Z,100.00
2024-03-23T05:38:29.974Z,100.00
2024-03-23T05:41:03.035Z,100.00
2024-03-23T05:43:32.423Z,100.00
2024-03-23T05:46:08.943Z,100.00
2024-03-23T05:48:37.729Z,100.00
2024-03-23T05:51:06.127Z,99.50
2024-03-23T05:53:35.233Z,99.49
2024-03-23T05:56:05.056Z,99.43
2024-03-23T05:58:34.006Z,99.72
2024-03-23T06:01:03.370Z,99.04
2024-03-23T06:03:31.795Z,97.32
2024-03-23T06:06:00.354Z,98.26
2024-03-23T06:08:28.775Z,98.71
2024-03-23T06:10:57.136Z,97.08
2024-03-23T06:13:30.966Z,97.33
2024-03-23T06:15:59.808Z,97.56
2024-03-23T06:18:28.904Z,97.34
2024-03-23T06:20:57.361Z,98.12
2024-03-23T06:23:28.566Z,97.85
2024-03-23T06:25:57.038Z,98.63
2024-03-23T06:28:25.388Z,97.22
2024-03-23T06:30:53.801Z,96.39
2024-03-23T06:33:22.186Z,96.96
2024-03-23T06:35:54.130Z,96.73
2024-03-23T06:38:22.383Z,94.60
2024-03-23T06:40:51.932Z,90.11
2024-03-23T06:43:20.232Z,91.75
2024-03-23T06:45:55.447Z,93.49
2024-03-23T06:48:24.226Z,92.62
2024-03-23T06:50:59.808Z,95.25
2024-03-23T06:53:28.319Z,95.32
2024-03-23T06:55:56.817Z,94.22
2024-03-23T06:58:26.509Z,96.28
2024-03-23T07:00:54.870Z,95.98
2024-03-23T07:03:24.206Z,94.45
2024-03-23T07:05:52.593Z,92.58
2024-03-23T07:08:23.497Z,92.63
2024-03-23T07:10:51.918Z,90.73
2024-03-23T07:13:20.603Z,91.72
2024-03-23T07:15:56.820Z,94.39
2024-03-23T07:18:25.444Z,94.16
2024-03-23T07:20:57.988Z,90.53
2024-03-23T07:23:26.674Z,93.24
2024-03-23T07:26:02.871Z,92.04
2024-03-23T07:28:33.890Z,90.38
2024-03-23T07:31:06.395Z,88.44
2024-03-23T07:33:34.700Z,92.14
2024-03-23T07:36:06.783Z,91.99
2024-03-23T07:38:35.434Z,92.84
2024-03-23T07:41:11.265Z,91.54
2024-03-23T07:43:41.493Z,92.32
2024-03-23T07:46:10.006Z,92.72
2024-03-23T07:48:38.338Z,86.99
2024-03-23T07:51:12.283Z,81.24
2024-03-23T07:53:40.887Z,88.02
2024-03-23T07:56:13.364Z,89.73
2024-03-23T07:58:42.150Z,88.04
2024-03-23T08:01:18.534Z,85.34
2024-03-23T08:03:47.560Z,84.35
2024-03-23T08:06:18.085Z,81.32
2024-03-23T08:08:47.731Z,84.75
2024-03-23T08:11:16.319Z,83.66
2024-03-23T08:13:46.815Z,82.44
2024-03-23T08:16:15.480Z,83.85
2024-03-23T08:18:44.203Z,80.97
2024-03-23T08:21:12.916Z,74.20
2024-03-23T08:23:41.934Z,76.84
2024-03-23T08:26:12.619Z,76.37
2024-03-23T08:28:41.291Z,82.48
2024-03-23T08:31:11.862Z,74.69
2024-03-23T08:33:41.462Z,72.58
2024-03-23T08:36:15.504Z,77.16
2024-03-23T08:38:44.104Z,78.40
2024-03-23T08:41:14.434Z,80.59
2024-03-23T08:43:45.282Z,76.77
2024-03-23T08:46:16.600Z,79.00
2024-03-23T08:48:47.531Z,76.25
2024-03-23T08:51:19.065Z,69.73
2024-03-23T08:53:47.810Z,75.36
2024-03-23T08:56:17.057Z,71.47
2024-03-23T08:58:45.492Z,71.34
2024-03-23T09:01:14.831Z,73.06
2024-03-23T09:03:43.430Z,73.95
2024-03-23T09:06:13.786Z,70.29
2024-03-23T09:08:43.001Z,66.07
2024-03-23T09:11:14.547Z,66.78
2024-03-23T09:13:43.084Z,63.96
2024-03-23T09:16:11.747Z,65.30
2024-03-23T09:18:40.446Z,65.05
2024-03-23T09:21:16.817Z,66.43
2024-03-23T09:23:46.267Z,61.86
2024-03-23T09:26:14.743Z,63.48
2024-03-23T09:28:44.218Z,60.70
2024-03-23T09:31:16.330Z,65.48
2024-03-23T09:33:44.790Z,64.06
2024-03-23T09:36:13.343Z,63.61
2024-03-23T09:38:42.677Z,63.83
2024-03-23T09:41:11.490Z,62.50
2024-03-23T09:43:40.288Z,64.77
2024-03-23T09:46:09.425Z,58.19
2024-03-23T09:48:38.214Z,61.46
2024-03-23T09:51:09.327Z,62.71
2024-03-23T09:53:38.574Z,59.73
2024-03-23T09:56:08.492Z,61.07
2024-03-23T09:58:37.656Z,60.03
2024-03-23T10:03:23.358Z,60.06
2024-03-23T10:06:06.163Z,56.57
2024-03-23T10:08:38.774Z,55.80
2024-03-23T10:11:17.203Z,59.10
2024-03-23T10:13:49.410Z,61.44
2024-03-23T10:16:25.230Z,61.46
2024-03-23T10:18:53.534Z,61.83
2024-03-23T10:21:21.987Z,60.23
2024-03-23T10:23:51.006Z,58.63
2024-03-23T10:26:22.547Z,55.29
2024-03-23T10:29:03.224Z,56.39
2024-03-23T10:31:37.335Z,56.39
2024-03-23T10:34:05.758Z,52.58
2024-03-23T10:36:36.467Z,53.90
2024-03-23T10:39:09.071Z,54.13
2024-03-23T10:41:38.510Z,54.38
2024-03-23T10:44:07.811Z,53.82
2024-03-23T10:46:38.850Z,53.23
2024-03-23T10:49:08.583Z,51.94
2024-03-23T10:51:38.762Z,51.94
2024-03-23T10:54:08.320Z,51.51
2024-03-23T10:56:38.339Z,52.86
2024-03-23T10:59:09.763Z,52.26
2024-03-23T11:01:55.724Z,49.90
2024-03-23T11:04:40.659Z,53.11
2024-03-23T11:07:27.647Z,52.01
2024-03-23T11:09:56.630Z,53.19
2024-03-23T11:12:25.319Z,54.03
2024-03-23T11:14:55.268Z,50.96
2024-03-23T11:17:24.894Z,50.82
2024-03-23T11:20:06.863Z,49.45
2024-03-23T11:22:54.053Z,50.38
2024-03-23T11:25:27.733Z,52.63
2024-03-23T11:27:58.322Z,52.53
2024-03-23T11:30:31.989Z,53.31
2024-03-23T11:33:03.259Z,50.23
2024-03-23T11:35:36.252Z,50.05
2024-03-23T11:38:06.456Z,50.12
2024-03-23T11:40:36.371Z,47.66
2024-03-23T11:43:06.522Z,49.01
2024-03-23T11:45:46.067Z,47.63
2024-03-23T11:48:19.548Z,47.73
2024-03-23T11:50:50.460Z,47.81
2024-03-23T11:53:23.824Z,51.04
2024-03-23T11:55:55.481Z,49.81
2024-03-23T11:58:28.920Z,51.01
2024-03-23T12:01:08.440Z,50.56
2024-03-23T12:03:38.014Z,49.08
2024-03-23T12:06:08.237Z,48.23
2024-03-23T12:08:36.864Z,47.11
2024-03-23T12:11:11.958Z,48.81
2024-03-23T12:13:44.602Z,48.83
2024-03-23T12:16:18.977Z,47.61
2024-03-23T12:18:50.277Z,47.12
2024-03-23T12:21:18.891Z,48.27
2024-03-23T12:23:48.085Z,45.77
2024-03-23T12:26:17.850Z,48.60
2024-03-23T12:28:46.190Z,49.79
2024-03-23T12:31:14.646Z,48.38
2024-03-23T12:33:43.711Z,46.78
2024-03-23T12:36:12.330Z,48.30
2024-03-23T12:38:40.932Z,46.00
2024-03-23T12:41:36.770Z,44.50
2024-03-23T12:44:07.020Z,45.31
2024-03-23T12:46:35.448Z,45.61
2024-03-23T12:49:03.729Z,44.97
2024-03-23T12:52:35.233Z,44.35
2024-03-23T12:55:06.362Z,45.19
2024-03-23T12:57:35.457Z,43.78
2024-03-23T13:00:05.327Z,43.77
2024-03-23T13:02:36.166Z,44.19
2024-03-23T13:05:04.985Z,44.17
2024-03-23T13:07:33.343Z,44.75
2024-03-23T13:10:01.971Z,45.77
2024-03-23T13:12:30.443Z,42.94
2024-03-23T13:14:58.746Z,44.49
2024-03-23T13:17:28.299Z,44.13
2024-03-23T13:19:59.789Z,43.67
2024-03-23T13:22:28.326Z,43.82
2024-03-23T13:24:56.599Z,45.54
2024-03-23T13:27:25.140Z,44.86
2024-03-23T13:29:54.223Z,44.70
2024-03-23T13:32:22.540Z,45.01
2024-03-23T13:34:54.142Z,42.78
2024-03-23T13:37:22.924Z,43.17
2024-03-23T13:39:51.276Z,45.13
2024-03-23T13:42:19.708Z,43.00
2024-03-23T13:44:48.234Z,41.75
2024-03-23T13:47:16.602Z,42.92
2024-03-23T13:49:45.159Z,43.22
2024-03-23T13:52:13.564Z,43.10
2024-03-23T13:54:47.340Z,43.53
2024-03-23T13:57:15.706Z,42.93
2024-03-23T13:59:44.086Z,43.07
2024-03-23T14:02:15.658Z,42.54
2024-03-23T14:04:44.253Z,42.83
2024-03-23T14:07:12.818Z,42.83
2024-03-23T14:09:41.294Z,42.99
2024-03-23T14:12:10.862Z,43.71
2024-03-23T14:14:39.333Z,43.64
2024-03-23T14:17:07.852Z,43.92
2024-03-23T14:19:36.138Z,43.40
2024-03-23T14:22:05.412Z,43.51
2024-03-23T14:24:34.846Z,42.68
2024-03-23T14:27:06.396Z,42.78
2024-03-23T14:29:36.460Z,41.60
2024-03-23T14:32:06.311Z,43.65
2024-03-23T14:34:34.559Z,43.94
2024-03-23T14:37:02.939Z,44.14
2024-03-23T14:39:35.631Z,43.49
2024-03-23T14:42:05.120Z,44.45
2024-03-23T14:44:33.390Z,45.01
2024-03-23T14:47:01.810Z,45.40
2024-03-23T14:49:30.101Z,44.15
2024-03-23T14:51:59.224Z,43.44
2024-03-23T14:54:27.910Z,44.72
2024-03-23T14:56:58.831Z,43.81
2024-03-23T14:59:27.506Z,44.76
2024-03-23T15:01:56.376Z,44.31
2024-03-23T15:04:25.077Z,45.78
2024-03-23T15:06:53.730Z,45.78
2024-03-23T15:09:22.211Z,44.83
2024-03-23T15:11:50.870Z,45.45
2024-03-23T15:14:19.802Z,45.12
2024-03-23T15:16:50.274Z,46.25
2024-03-23T15:19:18.717Z,46.47
2024-03-23T15:21:47.555Z,46.02
2024-03-23T15:24:15.965Z,44.55
2024-03-23T15:26:45.510Z,46.18
2024-03-23T15:29:17.826Z,46.57
2024-03-23T15:31:47.423Z,46.75
2024-03-23T15:34:16.021Z,46.53
2024-03-23T15:36:45.775Z,46.97
2024-03-23T15:39:15.445Z,47.17
2024-03-23T15:41:46.352Z,47.29
2024-03-23T15:44:14.730Z,47.02
2024-03-23T15:46:43.355Z,47.39
2024-03-23T15:49:12.076Z,47.64
2024-03-23T15:51:43.297Z,47.61
2024-03-23T15:54:14.732Z,48.08
2024-03-23T15:56:43.519Z,47.78
2024-03-23T15:59:12.328Z,48.06
2024-03-23T16:01:41.270Z,48.41
2024-03-23T16:04:09.724Z,48.28
2024-03-23T16:06:38.060Z,48.19
2024-03-23T16:09:06.667Z,48.42
2024-03-23T16:11:35.151Z,48.91
2024-03-23T16:14:03.684Z,48.47
2024-03-23T16:16:32.519Z,48.69
2024-03-23T16:19:01.202Z,49.10
2024-03-23T16:21:29.792Z,49.35
2024-03-23T16:23:59.010Z,49.40
2024-03-23T16:26:27.843Z,49.61
2024-03-23T16:29:06.762Z,49.92
2024-03-23T16:31:35.482Z,50.07
2024-03-23T16:34:04.467Z,50.09
2024-03-23T16:36:33.249Z,50.56
2024-03-23T16:39:01.844Z,50.68
2024-03-23T16:41:30.242Z,50.97
2024-03-23T16:43:58.812Z,50.77
2024-03-23T16:46:27.869Z,51.39
2024-03-23T16:48:57.265Z,51.86
2024-03-23T16:51:26.057Z,51.85
2024-03-23T16:53:58.455Z,52.13
2024-03-23T16:56:28.748Z,52.16
2024-03-23T16:58:59.295Z,52.28
2024-03-23T17:01:29.212Z,52.32
2024-03-23T17:03:59.247Z,52.56
2024-03-23T17:06:27.948Z,52.75
2024-03-23T17:08:57.693Z,52.93
2024-03-23T17:11:26.430Z,53.07
2024-03-23T17:13:56.941Z,53.31
2024-03-23T17:16:27.020Z,53.28
2024-03-23T17:18:55.601Z,53.48
2024-03-23T17:21:24.545Z,53.72
2024-03-23T17:23:54.826Z,53.86
2024-03-23T17:26:28.334Z,54.27
2024-03-23T17:28:56.765Z,54.29
2024-03-23T17:31:25.741Z,54.64
2024-03-23T17:33:54.356Z,54.76
2024-03-23T17:36:29.336Z,54.95
2024-03-23T17:38:58.384Z,55.12
2024-03-23T17:41:28.843Z,55.23
2024-03-23T17:43:57.472Z,55.33
2024-03-23T17:46:26.035Z,55.49
2024-03-23T17:48:54.362Z,55.65
2024-03-23T17:51:23.264Z,55.70
2024-03-23T17:53:52.066Z,55.81
2024-03-23T17:56:20.880Z,55.97
2024-03-23T17:58:49.914Z,56.00
2024-03-23T18:01:22.858Z,56.10
2024-03-23T18:03:55.046Z,56.42
2024-03-23T18:06:24.062Z,56.43
2024-03-23T18:08:52.976Z,56.63
2024-03-23T18:11:21.469Z,56.83
2024-03-23T18:13:50.176Z,56.94
2024-03-23T18:16:28.607Z,57.02
2024-03-23T18:18:57.898Z,57.15
2024-03-23T18:21:29.115Z,57.33
2024-03-23T18:23:57.524Z,57.56
2024-03-23T18:26:26.244Z,57.66
2024-03-23T18:28:54.925Z,57.76
2024-03-23T18:31:23.304Z,58.00
2024-03-23T18:33:52.702Z,58.05
2024-03-23T18:37:00.250Z,58.40
2024-03-23T18:39:30.251Z,58.75
2024-03-23T18:41:58.677Z,58.97
2024-03-23T18:44:27.189Z,59.08
2024-03-23T18:47:04.281Z,59.15
2024-03-23T18:49:32.650Z,59.34
2024-03-23T18:52:01.920Z,59.55
2024-03-23T18:54:30.800Z,59.88
2024-03-23T18:57:00.170Z,60.05
2024-03-23T18:59:29.190Z,60.16
2024-03-23T19:01:58.736Z,60.33
2024-03-23T19:04:27.112Z,60.58
2024-03-23T19:06:55.641Z,60.67
2024-03-23T19:09:27.077Z,60.77
2024-03-23T19:11:55.752Z,61.06
2024-03-23T19:14:24.905Z,61.42
2024-03-23T19:16:54.897Z,61.76
2024-03-23T19:19:23.229Z,61.99
2024-03-23T19:21:52.279Z,62.30
2024-03-23T19:24:20.867Z,62.21
2024-03-23T19:26:49.411Z,62.09
2024-03-23T19:29:20.755Z,62.10
2024-03-23T19:31:49.200Z,62.13
2024-03-23T19:34:18.216Z,62.02
2024-03-23T19:36:46.709Z,61.96
2024-03-23T19:39:15.479Z,62.11
2024-03-23T19:41:45.981Z,62.24
2024-03-23T19:44:14.994Z,62.46
2024-03-23T19:46:43.310Z,62.55
2024-03-23T19:49:12.198Z,62.64
2024-03-23T19:51:40.961Z,62.80
2024-03-23T19:54:14.820Z,62.64
2024-03-23T19:56:51.102Z,62.89
2024-03-23T20:02:49.006Z,62.46
2024-03-23T20:05:20.985Z,61.88
2024-03-23T20:07:51.686Z,61.57
2024-03-23T20:10:20.211Z,61.32
2024-03-23T20:12:48.881Z,61.08
2024-03-23T20:15:19.816Z,60.84
2024-03-23T20:17:49.933Z,60.87
2024-03-23T20:20:19.842Z,61.16
2024-03-23T20:22:51.402Z,60.62
2024-03-23T20:25:20.063Z,60.44
2024-03-23T20:27:48.445Z,60.04
2024-03-23T20:30:17.641Z,59.89
2024-03-23T20:32:46.010Z,60.22
2024-03-23T20:35:16.851Z,60.25
2024-03-23T20:37:45.311Z,59.83
2024-03-23T20:40:14.175Z,59.86
2024-03-23T20:42:42.731Z,59.74
2024-03-23T20:45:11.293Z,60.03
2024-03-23T20:47:39.866Z,60.09
2024-03-23T20:50:09.288Z,60.43
2024-03-23T20:52:37.789Z,60.73
2024-03-23T20:55:10.177Z,60.95
2024-03-23T20:57:43.363Z,60.91
2024-03-23T21:00:12.598Z,61.21
2024-03-23T21:02:43.007Z,60.93
2024-03-23T21:05:14.043Z,60.92
2024-03-23T21:07:42.460Z,60.92
2024-03-23T21:10:10.912Z,60.87
2024-03-23T21:12:41.898Z,60.98
2024-03-23T21:15:11.015Z,61.13
2024-03-23T21:17:39.410Z,61.69
2024-03-23T21:20:12.802Z,61.76
2024-03-23T21:22:41.451Z,61.79
2024-03-23T21:25:12.958Z,61.74
2024-03-23T21:27:41.604Z,61.78
2024-03-23T21:30:10.157Z,62.04
2024-03-23T21:32:38.680Z,62.04
2024-03-23T21:35:07.438Z,62.16
2024-03-23T21:37:35.934Z,62.20
2024-03-23T21:40:06.317Z,62.38
2024-03-23T21:42:34.949Z,62.37
2024-03-23T21:45:06.391Z,62.48
2024-03-23T21:47:36.100Z,62.52
2024-03-23T21:50:04.946Z,62.59
2024-03-23T21:52:36.459Z,62.76
2024-03-23T21:55:05.824Z,62.67
2024-03-23T21:57:39.934Z,62.95
2024-03-23T22:02:26.894Z,63.43
2024-03-23T22:04:56.468Z,63.87
2024-03-23T22:07:29.109Z,64.21
2024-03-23T22:09:59.518Z,64.64
2024-03-23T22:12:28.074Z,65.69
2024-03-23T22:14:56.449Z,65.96
2024-03-23T22:17:27.059Z,67.35
2024-03-23T22:19:55.450Z,66.52
2024-03-23T22:22:23.843Z,66.10
2024-03-23T22:24:53.424Z,65.95
2024-03-23T22:27:21.888Z,67.01
2024-03-23T22:29:50.061Z,67.56
2024-03-23T22:32:18.542Z,67.04
2024-03-23T22:34:48.933Z,67.90
2024-03-23T22:37:19.708Z,67.98
2024-03-23T22:39:50.084Z,67.90
2024-03-23T22:42:18.608Z,68.32
2024-03-23T22:44:46.951Z,68.13
2024-03-23T22:47:15.626Z,68.35
2024-03-23T22:49:43.998Z,68.83
2024-03-23T22:52:12.242Z,69.68
2024-03-23T22:54:40.785Z,69.30
2024-03-23T22:57:09.152Z,69.47
2024-03-23T22:59:37.534Z,69.64
2024-03-23T23:02:06.070Z,69.23
2024-03-23T23:04:35.470Z,69.71
2024-03-23T23:07:05.325Z,69.20
2024-03-23T23:09:34.011Z,69.54
2024-03-23T23:12:02.346Z,69.45
2024-03-23T23:14:31.729Z,70.50
2024-03-23T23:17:00.139Z,70.05
2024-03-23T23:19:28.432Z,70.91
2024-03-23T23:21:56.933Z,70.94
2024-03-23T23:24:25.255Z,71.42
2024-03-23T23:26:54.454Z,71.42
2024-03-23T23:29:22.932Z,72.02
2024-03-23T23:31:51.438Z,71.97
2024-03-23T23:34:19.729Z,72.28
2024-03-23T23:36:48.183Z,73.02
2024-03-23T23:39:16.569Z,72.47
2024-03-23T23:41:44.836Z,72.12
2024-03-23T23:44:14.237Z,72.00
2024-03-23T23:46:42.595Z,71.69
2024-03-23T23:49:10.935Z,71.55
2024-03-23T23:51:39.331Z,72.29
2024-03-23T23:54:08.024Z,72.74
2024-03-23T23:56:36.386Z,73.20
2024-03-23T23:59:04.916Z,73.62
